Terminal Aerodrome Forecast
Issued by NWS Blacksburg, VA

Current Version | Previous Version | Text Only | Print | Product List | Glossary Off
Versions: 1 2 3 4 5 6 7 8 9 10 11 12 13 14 15 16 17 18 19 20 21 22 23 24 25 26 27 28 29 30 31 32 33 34 35 36 37 38 39 40 41 42

000
FTUS41 KRNK 012132 AAB
TAFBLF
TAF AMD
KBLF 012132Z 0122/0218 12006KT P6SM BKN025 BKN040 OVC100
      TEMPO 0122/0201 SCT025
     FM020100 12006KT P6SM SCT015 BKN025 BKN100
     FM020500 12005KT P6SM SCT009 BKN015 OVC025
      TEMPO 0209/0213 5SM -DZ BR BKN009 OVC015
     FM021500 13007KT P6SM SCT015 BKN025 OVC045=

USA.gov is the U.S. government's official web portal to all federal, state and local government web resources and services.